createdAt,value
2018-08-11T00:01:29.959Z,9.30
2018-08-11T00:04:02.540Z,8.93
2018-08-11T00:06:34.958Z,9.77
2018-08-11T00:09:09.935Z,9.03
2018-08-11T00:11:43.018Z,9.27
2018-08-11T00:14:15.560Z,9.17
2018-08-11T00:16:48.442Z,8.77
2018-08-11T00:19:20.870Z,9.23
2018-08-11T00:21:53.183Z,9.43
2018-08-11T00:24:25.840Z,9.03
2018-08-11T00:26:58.286Z,9.50
2018-08-11T00:29:30.450Z,8.73
2018-08-11T00:32:03.035Z,9.03
2018-08-11T00:34:35.338Z,9.20
2018-08-11T00:37:07.317Z,9.60
2018-08-11T00:39:39.699Z,9.07
2018-08-11T00:42:12.563Z,8.57
2018-08-11T00:44:45.597Z,9.40
2018-08-11T00:47:19.196Z,9.17
2018-08-11T00:49:51.630Z,9.17
2018-08-11T00:52:24.024Z,9.30
2018-08-11T00:54:56.282Z,9.47
2018-08-11T00:57:28.717Z,9.20
2018-08-11T01:00:01.682Z,8.90
2018-08-11T01:02:34.389Z,8.50
2018-08-11T01:05:08.075Z,8.47
2018-08-11T01:07:40.932Z,8.27
2018-08-11T01:10:14.219Z,7.20
2018-08-11T01:12:46.849Z,6.20
2018-08-11T01:15:21.389Z,7.10
2018-08-11T01:17:54.327Z,7.07
2018-08-11T01:20:26.915Z,5.93
2018-08-11T01:22:59.423Z,5.73
2018-08-11T01:25:32.149Z,4.73
2018-08-11T01:28:04.376Z,4.50
2018-08-11T01:30:36.664Z,4.10
2018-08-11T01:33:09.156Z,3.60
2018-08-11T01:35:41.738Z,4.03
2018-08-11T01:38:14.158Z,3.63
2018-08-11T01:40:46.483Z,3.00
2018-08-11T01:43:19.079Z,2.87
2018-08-11T01:45:51.455Z,3.23
2018-08-11T01:48:23.688Z,3.37
2018-08-11T01:50:56.241Z,2.80
2018-08-11T01:53:28.861Z,3.07
2018-08-11T01:56:01.533Z,2.70
2018-08-11T01:58:33.715Z,3.00
2018-08-11T02:01:06.525Z,2.80
2018-08-11T02:03:39.012Z,2.90
2018-08-11T02:06:11.369Z,2.90
2018-08-11T02:08:43.966Z,2.40
2018-08-11T02:11:16.195Z,2.70
2018-08-11T02:13:48.989Z,2.40
2018-08-11T02:16:21.632Z,2.67
2018-08-11T02:18:54.691Z,2.63
2018-08-11T02:21:26.908Z,2.57
2018-08-11T02:23:59.522Z,2.17
2018-08-11T02:26:32.083Z,1.77
2018-08-11T02:29:04.575Z,1.70
2018-08-11T02:31:37.079Z,2.10
2018-08-11T02:34:09.737Z,1.57
2018-08-11T02:36:42.198Z,1.50
2018-08-11T02:39:16.004Z,1.63
2018-08-11T02:41:48.718Z,1.57
2018-08-11T02:44:20.953Z,1.40
2018-08-11T02:46:53.073Z,1.50
2018-08-11T02:49:25.965Z,1.27
2018-08-11T02:51:58.675Z,1.40
2018-08-11T02:54:31.856Z,1.50
2018-08-11T02:57:04.581Z,1.80
2018-08-11T02:59:37.358Z,1.57
2018-08-11T03:02:09.800Z,1.40
2018-08-11T03:04:41.901Z,1.47
2018-08-11T03:07:14.205Z,2.20
2018-08-11T03:09:46.643Z,2.10
2018-08-11T03:12:19.173Z,2.43
2018-08-11T03:14:51.521Z,1.53
2018-08-11T03:17:24.312Z,1.70
2018-08-11T03:19:56.851Z,1.80
2018-08-11T03:22:29.376Z,1.60
2018-08-11T03:25:01.717Z,1.40
2018-08-11T03:27:34.498Z,1.73
2018-08-11T03:30:07.943Z,1.70
2018-08-11T03:32:40.388Z,1.50
2018-08-11T03:35:13.426Z,1.77
2018-08-11T03:37:46.117Z,1.67
2018-08-11T03:40:18.428Z,1.40
2018-08-11T03:42:50.955Z,1.57
2018-08-11T03:45:23.540Z,1.57
2018-08-11T03:47:55.932Z,1.40
2018-08-11T03:50:28.689Z,1.40
2018-08-11T03:53:00.945Z,1.60
2018-08-11T03:55:33.053Z,1.43
2018-08-11T03:58:05.921Z,1.40
2018-08-11T04:00:38.309Z,1.47
2018-08-11T04:03:10.494Z,1.20
2018-08-11T04:05:43.430Z,1.40
2018-08-11T04:08:15.732Z,1.57
2018-08-11T04:10:48.474Z,2.10
2018-08-11T04:13:21.286Z,1.37
2018-08-11T04:15:53.421Z,1.30
2018-08-11T04:18:26.646Z,1.40
2018-08-11T04:20:59.903Z,1.30
2018-08-11T04:23:32.222Z,1.20
2018-08-11T04:26:05.155Z,1.20
2018-08-11T04:28:37.669Z,1.13
2018-08-11T04:31:10.349Z,1.10
2018-08-11T04:33:42.687Z,1.50
2018-08-11T04:36:14.642Z,1.40
2018-08-11T04:38:47.182Z,1.23
2018-08-11T04:41:19.600Z,1.03
2018-08-11T04:43:51.850Z,1.17
2018-08-11T04:46:24.599Z,0.97
2018-08-11T04:48:57.132Z,1.50
2018-08-11T04:51:29.805Z,1.93
2018-08-11T04:54:02.804Z,1.60
2018-08-11T04:56:35.454Z,1.50
2018-08-11T04:59:07.717Z,1.20
2018-08-11T05:01:40.283Z,1.00
2018-08-11T05:04:12.615Z,1.20
2018-08-11T05:06:44.989Z,1.30
2018-08-11T05:09:17.143Z,1.40
2018-08-11T05:11:49.998Z,1.10
2018-08-11T05:14:22.029Z,1.30
2018-08-11T05:16:54.551Z,1.30
2018-08-11T05:19:26.832Z,1.40
2018-08-11T05:21:59.367Z,1.30
2018-08-11T05:24:32.176Z,1.30
2018-08-11T05:27:04.454Z,1.50
2018-08-11T05:29:37.112Z,1.53
2018-08-11T05:32:09.050Z,1.27
2018-08-11T05:34:41.006Z,1.40
2018-08-11T05:37:12.929Z,1.17
2018-08-11T05:39:45.272Z,1.70
2018-08-11T05:42:17.858Z,1.30
2018-08-11T05:44:50.092Z,1.70
2018-08-11T05:47:22.384Z,1.50
2018-08-11T05:49:55.114Z,1.00
2018-08-11T05:52:27.614Z,1.10
2018-08-11T05:55:00.555Z,1.20
2018-08-11T05:57:33.098Z,1.40
2018-08-11T06:00:06.204Z,1.27
2018-08-11T06:02:39.849Z,1.37
2018-08-11T06:05:12.525Z,1.30
2018-08-11T06:07:45.296Z,1.00
2018-08-11T06:10:17.717Z,1.50
2018-08-11T06:12:50.431Z,1.40
2018-08-11T06:15:22.654Z,1.30
2018-08-11T06:17:54.992Z,1.70
2018-08-11T06:20:27.458Z,1.40
2018-08-11T06:22:59.879Z,1.47
2018-08-11T06:25:32.881Z,1.63
2018-08-11T06:28:05.433Z,1.20
2018-08-11T06:30:37.874Z,1.13
2018-08-11T06:33:10.360Z,1.10
2018-08-11T06:35:42.931Z,1.27
2018-08-11T06:38:15.455Z,1.53
2018-08-11T06:40:47.968Z,1.30
2018-08-11T06:43:20.674Z,1.37
2018-08-11T06:45:53.368Z,1.10
2018-08-11T06:48:25.464Z,1.50
2018-08-11T06:50:58.202Z,1.27
2018-08-11T06:53:30.718Z,1.30
2018-08-11T06:56:03.151Z,1.73
2018-08-11T06:58:35.283Z,1.63
2018-08-11T07:01:07.698Z,1.30
2018-08-11T07:03:40.101Z,1.83
2018-08-11T07:06:12.350Z,1.70
2018-08-11T07:08:44.848Z,1.70
2018-08-11T07:11:17.288Z,1.40
2018-08-11T07:13:49.600Z,1.50
2018-08-11T07:16:21.791Z,1.50
2018-08-11T07:18:54.084Z,1.63
2018-08-11T07:21:26.721Z,1.67
2018-08-11T07:23:59.426Z,1.50
2018-08-11T07:26:31.958Z,1.50
2018-08-11T07:29:04.336Z,1.47
2018-08-11T07:31:36.709Z,1.53
2018-08-11T07:34:09.033Z,1.23
2018-08-11T07:36:41.431Z,1.70
2018-08-11T07:39:14.120Z,1.50
2018-08-11T07:41:46.672Z,1.33
2018-08-11T07:44:19.575Z,1.53
2018-08-11T07:46:52.239Z,1.40
2018-08-11T07:49:24.582Z,1.37
2018-08-11T07:51:57.000Z,1.10
2018-08-11T07:54:29.382Z,1.30
2018-08-11T07:57:01.952Z,1.50
2018-08-11T07:59:34.331Z,1.30
2018-08-11T08:02:06.740Z,1.50
2018-08-11T08:04:39.124Z,1.73
2018-08-11T08:07:11.611Z,1.30
2018-08-11T08:09:43.917Z,1.50
2018-08-11T08:12:16.523Z,1.40
2018-08-11T08:14:49.108Z,1.23
2018-08-11T08:17:21.778Z,1.10
2018-08-11T08:19:54.401Z,1.50
2018-08-11T08:22:26.853Z,1.70
2018-08-11T08:24:59.144Z,1.60
2018-08-11T08:27:31.558Z,1.30
2018-08-11T08:30:05.956Z,1.20
2018-08-11T08:32:38.405Z,1.50
2018-08-11T08:35:14.262Z,1.70
2018-08-11T08:37:46.590Z,1.73
2018-08-11T08:40:18.757Z,1.73
2018-08-11T08:42:51.290Z,1.53
2018-08-11T08:45:23.605Z,1.40
2018-08-11T08:47:55.869Z,1.13
2018-08-11T08:50:28.179Z,1.30
2018-08-11T08:53:00.742Z,1.40
2018-08-11T08:55:34.020Z,1.17
2018-08-11T08:58:06.597Z,1.03
2018-08-11T09:00:38.884Z,1.13
2018-08-11T09:03:11.270Z,1.43
2018-08-11T09:05:43.890Z,1.13
2018-08-11T09:08:16.498Z,1.10
2018-08-11T09:10:49.017Z,1.40
2018-08-11T09:13:21.205Z,1.40
2018-08-11T09:15:53.829Z,1.20
2018-08-11T09:18:26.119Z,1.40
2018-08-11T09:20:58.271Z,1.27
2018-08-11T09:23:30.885Z,1.20
2018-08-11T09:26:03.632Z,1.43
2018-08-11T09:28:36.213Z,1.30
2018-08-11T09:31:08.815Z,1.40
2018-08-11T09:33:41.393Z,1.43
2018-08-11T09:36:14.196Z,1.20
2018-08-11T09:38:46.414Z,1.80
2018-08-11T09:41:18.694Z,1.40
2018-08-11T09:43:51.215Z,1.33
2018-08-11T09:46:23.779Z,1.30
2018-08-11T09:48:56.283Z,1.50
2018-08-11T09:51:28.742Z,1.30
2018-08-11T09:54:00.907Z,1.30
2018-08-11T09:56:33.225Z,1.40
2018-08-11T09:59:05.807Z,1.20
2018-08-11T10:01:43.137Z,1.57
2018-08-11T10:04:15.971Z,1.30
2018-08-11T10:06:48.147Z,1.30
2018-08-11T10:09:20.725Z,1.33
2018-08-11T10:11:53.251Z,1.50
2018-08-11T10:14:25.573Z,1.03
2018-08-11T10:16:58.103Z,1.70
2018-08-11T10:19:30.388Z,1.30
2018-08-11T10:22:02.738Z,1.10
2018-08-11T10:24:35.099Z,1.50
2018-08-11T10:27:07.399Z,1.03
2018-08-11T10:29:40.245Z,1.17
2018-08-11T10:32:12.787Z,1.10
2018-08-11T10:34:45.575Z,1.20
2018-08-11T10:37:18.135Z,1.30
2018-08-11T10:39:50.589Z,1.17
2018-08-11T10:42:23.133Z,1.20
2018-08-11T10:44:55.643Z,1.60
2018-08-11T10:47:27.973Z,1.30
2018-08-11T10:50:00.673Z,1.00
2018-08-11T10:52:32.928Z,1.30
2018-08-11T10:55:05.332Z,1.20
2018-08-11T10:57:37.766Z,1.40
2018-08-11T11:00:10.052Z,1.10
2018-08-11T11:02:42.426Z,1.20
2018-08-11T11:05:15.658Z,1.07
2018-08-11T11:07:48.028Z,1.20
2018-08-11T11:10:20.194Z,1.50
2018-08-11T11:12:52.729Z,1.17
2018-08-11T11:15:25.098Z,1.00
2018-08-11T11:17:57.935Z,1.07
2018-08-11T11:20:30.488Z,1.47
2018-08-11T11:23:03.061Z,1.20
2018-08-11T11:25:35.449Z,1.00
2018-08-11T11:28:08.402Z,1.23
2018-08-11T11:30:40.800Z,1.20
2018-08-11T11:33:13.155Z,1.40
2018-08-11T11:35:45.795Z,1.43
2018-08-11T11:38:18.348Z,1.50
2018-08-11T11:40:50.580Z,1.20
2018-08-11T11:43:22.906Z,1.30
2018-08-11T11:45:55.432Z,1.20
2018-08-11T11:48:27.604Z,1.30
2018-08-11T11:50:59.952Z,1.10
2018-08-11T11:53:32.453Z,1.40
2018-08-11T11:56:05.932Z,1.43
2018-08-11T11:58:38.368Z,1.10
2018-08-11T12:01:10.995Z,1.20
2018-08-11T12:03:43.753Z,1.40
2018-08-11T12:06:16.044Z,1.30
2018-08-11T12:08:48.577Z,1.40
2018-08-11T12:11:21.126Z,1.30
2018-08-11T12:13:53.795Z,1.17
2018-08-11T12:16:26.417Z,0.93
2018-08-11T12:18:58.768Z,1.20
2018-08-11T12:21:31.290Z,1.00
2018-08-11T12:24:04.012Z,1.20
2018-08-11T12:26:36.553Z,0.90
2018-08-11T12:29:09.448Z,1.17
2018-08-11T12:31:41.869Z,0.97
2018-08-11T12:34:14.657Z,0.80
2018-08-11T12:36:47.240Z,1.00
2018-08-11T12:39:20.062Z,1.30
2018-08-11T12:41:52.635Z,1.10
2018-08-11T12:44:25.062Z,1.13
2018-08-11T12:46:57.363Z,1.20
2018-08-11T12:49:30.234Z,0.90
2018-08-11T12:52:02.752Z,0.90
2018-08-11T12:54:35.058Z,1.10
2018-08-11T12:57:07.590Z,0.87
2018-08-11T12:59:40.145Z,1.30
2018-08-11T13:02:12.452Z,1.27
2018-08-11T13:04:44.972Z,1.20
2018-08-11T13:07:17.936Z,0.93
2018-08-11T13:09:50.553Z,1.20
2018-08-11T13:12:22.895Z,0.93
2018-08-11T13:14:55.595Z,0.90
2018-08-11T13:17:27.903Z,1.37
2018-08-11T13:20:00.547Z,1.13
2018-08-11T13:22:33.069Z,0.70
2018-08-11T13:25:05.772Z,0.90
2018-08-11T13:27:38.029Z,1.00
2018-08-11T13:30:11.408Z,0.80
2018-08-11T13:32:43.813Z,1.70
2018-08-11T13:35:16.321Z,1.10
2018-08-11T13:37:48.829Z,1.00
2018-08-11T13:40:21.061Z,1.13
2018-08-11T13:42:53.560Z,1.10
2018-08-11T13:45:25.987Z,0.90
2018-08-11T13:47:58.589Z,1.30
2018-08-11T13:50:31.015Z,0.90
2018-08-11T13:53:03.146Z,1.10
2018-08-11T13:55:36.144Z,0.93
2018-08-11T13:58:08.567Z,1.30
2018-08-11T14:00:42.830Z,1.30
2018-08-11T14:03:15.282Z,1.00
2018-08-11T14:05:47.755Z,0.83
2018-08-11T14:08:20.365Z,0.90
2018-08-11T14:10:52.839Z,0.90
2018-08-11T14:13:25.606Z,1.10
2018-08-11T14:15:58.071Z,1.00
2018-08-11T14:18:30.502Z,1.10
2018-08-11T14:21:02.781Z,1.07
2018-08-11T14:23:35.374Z,0.90
2018-08-11T14:26:07.859Z,1.03
2018-08-11T14:28:40.441Z,0.87
2018-08-11T14:31:13.046Z,1.10
2018-08-11T14:33:45.724Z,0.80
2018-08-11T14:36:18.259Z,0.90
2018-08-11T14:38:51.195Z,1.20
2018-08-11T14:41:24.611Z,0.80
2018-08-11T14:43:57.245Z,1.10
2018-08-11T14:46:30.011Z,0.63
2018-08-11T14:49:03.165Z,1.10
2018-08-11T14:51:37.313Z,1.03
2018-08-11T14:54:10.891Z,1.30
2018-08-11T14:56:44.004Z,1.03
2018-08-11T14:59:16.864Z,1.60
2018-08-11T15:01:49.195Z,1.23
2018-08-11T15:04:21.735Z,0.80
2018-08-11T15:06:54.177Z,0.93
2018-08-11T15:09:26.489Z,0.90
2018-08-11T15:11:58.690Z,1.00
2018-08-11T15:14:31.455Z,0.97
2018-08-11T15:17:04.913Z,1.17
2018-08-11T15:19:37.869Z,1.13
2018-08-11T15:22:10.338Z,1.00
2018-08-11T15:24:42.789Z,1.20
2018-08-11T15:27:16.043Z,1.00
2018-08-11T15:29:49.420Z,1.10
2018-08-11T15:32:22.708Z,1.40
2018-08-11T15:34:55.848Z,1.00
2018-08-11T15:37:28.998Z,1.23
2018-08-11T15:40:01.328Z,1.17
2018-08-11T15:42:34.187Z,1.43
2018-08-11T15:45:08.058Z,1.10
2018-08-11T15:47:41.215Z,0.80
2018-08-11T15:50:13.643Z,1.10
2018-08-11T15:52:46.195Z,1.00
2018-08-11T15:55:18.761Z,1.03
2018-08-11T15:57:51.432Z,1.17
2018-08-11T16:00:23.820Z,1.00
2018-08-11T16:02:56.289Z,0.90
2018-08-11T16:05:28.708Z,1.00
2018-08-11T16:08:01.002Z,1.07
2018-08-11T16:10:33.516Z,1.10
2018-08-11T16:13:06.102Z,1.00
2018-08-11T16:15:38.329Z,0.90
2018-08-11T16:18:10.715Z,0.80
2018-08-11T16:20:43.333Z,0.87
2018-08-11T16:23:16.035Z,0.70
2018-08-11T16:25:48.623Z,0.70
2018-08-11T16:28:20.998Z,0.60
2018-08-11T16:30:53.292Z,0.90
2018-08-11T16:33:26.150Z,0.80
2018-08-11T16:35:58.288Z,0.60
2018-08-11T16:38:30.907Z,0.77
2018-08-11T16:41:03.574Z,0.60
2018-08-11T16:43:36.052Z,0.60
2018-08-11T16:46:08.539Z,0.57
2018-08-11T16:48:40.850Z,0.80
2018-08-11T16:51:13.340Z,0.60
2018-08-11T16:53:45.772Z,0.73
2018-08-11T16:56:18.182Z,0.70
2018-08-11T16:58:50.759Z,0.70
2018-08-11T17:01:23.596Z,0.80
2018-08-11T17:03:56.252Z,0.90
2018-08-11T17:06:28.718Z,0.70
2018-08-11T17:09:01.120Z,0.60
2018-08-11T17:11:33.584Z,0.83
2018-08-11T17:14:06.319Z,0.73
2018-08-11T17:16:38.884Z,0.60
2018-08-11T17:19:11.606Z,0.90
2018-08-11T17:21:44.109Z,1.10
2018-08-11T17:24:16.783Z,0.93
2018-08-11T17:29:14.240Z,0.83
2018-08-11T17:31:46.581Z,0.90
2018-08-11T17:34:19.311Z,0.60
2018-08-11T17:36:51.583Z,1.13
2018-08-11T17:39:24.070Z,1.10
2018-08-11T17:41:56.960Z,0.90
2018-08-11T17:44:29.465Z,0.90
2018-08-11T17:47:01.633Z,0.70
2018-08-11T17:49:33.857Z,0.60
2018-08-11T17:52:06.999Z,0.57
2018-08-11T17:54:39.302Z,0.80
2018-08-11T17:57:12.145Z,0.80
2018-08-11T17:59:44.654Z,0.73
2018-08-11T18:02:17.046Z,0.77
2018-08-11T18:04:49.461Z,1.00
2018-08-11T18:07:21.926Z,0.90
2018-08-11T18:09:54.814Z,1.10
2018-08-11T18:12:27.330Z,0.80
2018-08-11T18:14:59.726Z,0.83
2018-08-11T18:17:32.163Z,0.90
2018-08-11T18:20:04.380Z,1.00
2018-08-11T18:22:37.369Z,1.30
2018-08-11T18:25:09.987Z,0.97
2018-08-11T18:27:42.631Z,1.10
2018-08-11T18:30:15.252Z,0.80
2018-08-11T18:32:48.208Z,2.00
2018-08-11T18:35:20.971Z,1.10
2018-08-11T18:37:53.746Z,1.20
2018-08-11T18:40:26.133Z,0.90
2018-08-11T18:42:58.480Z,1.03
2018-08-11T18:45:30.731Z,0.97
2018-08-11T18:48:03.318Z,1.13
2018-08-11T18:50:35.792Z,0.90
2018-08-11T18:53:08.530Z,1.00
2018-08-11T18:55:41.191Z,1.10
2018-08-11T18:58:13.692Z,1.00
2018-08-11T19:00:46.392Z,1.63
2018-08-11T19:03:18.918Z,1.60
2018-08-11T19:05:51.256Z,1.87
2018-08-11T19:08:23.779Z,1.70
2018-08-11T19:10:56.281Z,1.50
2018-08-11T19:13:28.821Z,1.50
2018-08-11T19:16:01.406Z,1.60
2018-08-11T19:18:33.860Z,1.50
2018-08-11T19:21:06.513Z,1.53
2018-08-11T19:23:39.905Z,1.40
2018-08-11T19:26:12.334Z,1.70
2018-08-11T19:28:45.054Z,1.67
2018-08-11T19:31:17.336Z,1.60
2018-08-11T19:33:49.769Z,1.83
2018-08-11T19:36:22.117Z,1.90
2018-08-11T19:38:54.367Z,1.53
2018-08-11T19:41:26.500Z,1.90
2018-08-11T19:43:58.693Z,1.60
2018-08-11T19:46:31.881Z,1.60
2018-08-11T19:49:04.366Z,1.83
2018-08-11T19:51:36.723Z,1.57
2018-08-11T19:54:08.958Z,1.80
2018-08-11T19:56:41.200Z,1.50
2018-08-11T19:59:13.662Z,1.20
2018-08-11T20:01:46.415Z,1.40
2018-08-11T20:04:18.846Z,1.30
2018-08-11T20:06:51.223Z,1.30
2018-08-11T20:09:23.936Z,1.37
2018-08-11T20:11:56.449Z,1.00
2018-08-11T20:14:28.818Z,1.47
2018-08-11T20:17:01.423Z,1.03
2018-08-11T20:19:33.877Z,1.37
2018-08-11T20:22:06.659Z,1.00
2018-08-11T20:24:39.111Z,1.60
2018-08-11T20:27:11.892Z,1.20
2018-08-11T20:29:44.158Z,1.60
2018-08-11T20:32:16.912Z,1.37
2018-08-11T20:34:49.499Z,1.60
2018-08-11T20:37:22.565Z,1.40
2018-08-11T20:39:55.224Z,1.23
2018-08-11T20:42:27.710Z,1.53
2018-08-11T20:45:00.122Z,1.23
2018-08-11T20:47:33.092Z,1.30
2018-08-11T20:50:06.157Z,1.20
2018-08-11T20:52:38.879Z,1.30
2018-08-11T20:55:11.571Z,1.47
2018-08-11T20:57:44.589Z,1.60
2018-08-11T21:00:17.471Z,1.40
2018-08-11T21:02:49.948Z,1.43
2018-08-11T21:05:22.568Z,1.33
2018-08-11T21:07:55.183Z,1.60
2018-08-11T21:10:27.375Z,1.43
2018-08-11T21:12:59.788Z,1.57
2018-08-11T21:15:32.548Z,1.30
2018-08-11T21:18:05.096Z,1.40
2018-08-11T21:20:37.823Z,1.80
2018-08-11T21:23:10.905Z,1.83
2018-08-11T21:25:43.529Z,1.70
2018-08-11T21:28:15.972Z,1.80
2018-08-11T21:30:48.389Z,1.37
2018-08-11T21:33:21.470Z,1.60
2018-08-11T21:35:53.732Z,1.30
2018-08-11T21:38:26.046Z,1.70
2018-08-11T21:40:58.408Z,1.40
2018-08-11T21:43:31.003Z,1.83
2018-08-11T21:46:03.578Z,1.60
2018-08-11T21:48:36.309Z,1.50
2018-08-11T21:51:08.746Z,1.80
2018-08-11T21:53:41.169Z,1.40
2018-08-11T21:56:13.609Z,1.37
2018-08-11T21:58:45.965Z,1.60
2018-08-11T22:01:18.433Z,1.30
2018-08-11T22:03:50.661Z,1.33
2018-08-11T22:06:23.210Z,1.40
2018-08-11T22:08:55.657Z,1.43
2018-08-11T22:11:28.916Z,0.90
2018-08-11T22:14:01.645Z,1.10
2018-08-11T22:16:34.239Z,1.50
2018-08-11T22:19:07.118Z,1.40
2018-08-11T22:21:39.719Z,1.10
2018-08-11T22:24:12.116Z,1.10
2018-08-11T22:26:44.661Z,0.90
2018-08-11T22:29:17.417Z,1.43
2018-08-11T22:31:50.340Z,1.30
2018-08-11T22:34:23.093Z,1.10
2018-08-11T22:36:55.281Z,1.30
2018-08-11T22:39:27.384Z,1.30
2018-08-11T22:42:00.000Z,1.50
2018-08-11T22:44:32.465Z,1.37
2018-08-11T22:47:05.111Z,1.27
2018-08-11T22:49:37.574Z,1.20
2018-08-11T22:52:10.188Z,1.13
2018-08-11T22:54:42.248Z,1.40
2018-08-11T22:57:14.313Z,1.00
2018-08-11T22:59:46.841Z,0.90
2018-08-11T23:02:19.464Z,1.23
2018-08-11T23:04:51.622Z,1.17
2018-08-11T23:07:24.013Z,1.63
2018-08-11T23:09:56.223Z,1.37
2018-08-11T23:12:28.954Z,1.30
2018-08-11T23:15:01.176Z,1.50
2018-08-11T23:17:33.498Z,1.33
2018-08-11T23:20:05.794Z,1.40
2018-08-11T23:22:37.752Z,1.17
2018-08-11T23:25:10.628Z,1.57
2018-08-11T23:27:42.739Z,2.03
2018-08-11T23:30:17.907Z,1.50
2018-08-11T23:32:50.195Z,1.60
2018-08-11T23:35:23.264Z,1.90
2018-08-11T23:37:56.245Z,1.63
2018-08-11T23:40:28.558Z,1.73
2018-08-11T23:43:00.862Z,1.43
2018-08-11T23:45:33.316Z,1.50
2018-08-11T23:48:06.168Z,1.50
2018-08-11T23:50:39.382Z,1.20
2018-08-11T23:53:12.308Z,1.20
2018-08-11T23:55:45.198Z,1.47
2018-08-11T23:58:17.790Z,1.53
